SIL weather

San Isidro Labrador Airport
Cajeme, Sonora, Mexico

Public forecast

Using degrees Celsius for public forecast. Weather courtesy of forecast.io.

Closest aviation weather report (METAR) to San Isidro Labrador Airport

Closest report is Ciudad Obregón International Airport, 4.2 nm (7.8 km) ENE. Retrieved 2020/08/04 16:40 UTC (22 minutes ago):

MMCN 041640Z 09003KT 10SM BKN080 BKN100 33/19 A2991 RMK 8/070 HZY

Closest aviation forecast (TAF) to San Isidro Labrador Airport

Forecast is more than 6 hours old.

Closest forecast is Ciudad Obregón International Airport, 4.2 nm (7.8 km) ENE. Retrieved 2020/08/04 06:27 UTC (11 hours ago):

TAF MMCN 040525Z 0406/0506 23005KT P6SM SCT100 BKN200 TEMPO 0406/0409 6SM TSRA BKN020CB FM041800 22010KT P6SM SCT030 FM050300 24005KT P6SM SCT200